sensor_id;sensor_type;location;lat;lon;timestamp;P1;durP1;ratioP1;P2;durP2;ratioP2
23175;SDS011;19910;42.652;23.332;2023-04-03T00:00:00;5.00;;;1.92;;
23175;SDS011;19910;42.652;23.332;2023-04-03T00:02:28;4.80;;;1.67;;
23175;SDS011;19910;42.652;23.332;2023-04-03T00:04:54;3.10;;;2.13;;
23175;SDS011;19910;42.652;23.332;2023-04-03T00:07:22;3.08;;;1.73;;
23175;SDS011;19910;42.652;23.332;2023-04-03T00:09:49;3.15;;;1.77;;
23175;SDS011;19910;42.652;23.332;2023-04-03T00:12:16;3.90;;;1.95;;
23175;SDS011;19910;42.652;23.332;2023-04-03T00:14:43;3.75;;;1.70;;
23175;SDS011;19910;42.652;23.332;2023-04-03T00:17:09;2.28;;;1.58;;
23175;SDS011;19910;42.652;23.332;2023-04-03T00:19:36;2.33;;;1.50;;
23175;SDS011;19910;42.652;23.332;2023-04-03T00:22:03;3.95;;;1.92;;
23175;SDS011;19910;42.652;23.332;2023-04-03T00:24:31;7.03;;;1.83;;
23175;SDS011;19910;42.652;23.332;2023-04-03T00:26:58;2.35;;;1.92;;
23175;SDS011;19910;42.652;23.332;2023-04-03T00:29:24;3.05;;;1.88;;
23175;SDS011;19910;42.652;23.332;2023-04-03T00:31:51;5.35;;;2.00;;
23175;SDS011;19910;42.652;23.332;2023-04-03T00:34:18;3.67;;;1.73;;
23175;SDS011;19910;42.652;23.332;2023-04-03T00:36:45;2.83;;;2.28;;
23175;SDS011;19910;42.652;23.332;2023-04-03T00:39:11;3.47;;;1.90;;
23175;SDS011;19910;42.652;23.332;2023-04-03T00:41:39;4.82;;;2.42;;
23175;SDS011;19910;42.652;23.332;2023-04-03T00:44:22;3.80;;;2.25;;
23175;SDS011;19910;42.652;23.332;2023-04-03T00:47:27;2.28;;;1.90;;
23175;SDS011;19910;42.652;23.332;2023-04-03T00:49:56;2.78;;;1.80;;
23175;SDS011;19910;42.652;23.332;2023-04-03T00:52:25;2.30;;;1.40;;
23175;SDS011;19910;42.652;23.332;2023-04-03T00:54:55;3.78;;;2.00;;
23175;SDS011;19910;42.652;23.332;2023-04-03T00:57:26;3.67;;;1.70;;
23175;SDS011;19910;42.652;23.332;2023-04-03T00:59:55;2.42;;;1.75;;
23175;SDS011;19910;42.652;23.332;2023-04-03T01:02:26;1.90;;;1.30;;
23175;SDS011;19910;42.652;23.332;2023-04-03T01:04:53;4.13;;;2.15;;
23175;SDS011;19910;42.652;23.332;2023-04-03T01:07:20;7.72;;;1.88;;
23175;SDS011;19910;42.652;23.332;2023-04-03T01:09:48;1.83;;;1.40;;
23175;SDS011;19910;42.652;23.332;2023-04-03T01:12:20;3.53;;;1.85;;
23175;SDS011;19910;42.652;23.332;2023-04-03T01:14:50;2.35;;;1.55;;
23175;SDS011;19910;42.652;23.332;2023-04-03T01:17:26;2.67;;;1.88;;
23175;SDS011;19910;42.652;23.332;2023-04-03T01:19:57;4.50;;;1.73;;
23175;SDS011;19910;42.652;23.332;2023-04-03T01:22:51;1.33;;;0.98;;
23175;SDS011;19910;42.652;23.332;2023-04-03T01:25:23;2.72;;;1.85;;
23175;SDS011;19910;42.652;23.332;2023-04-03T01:27:50;3.17;;;1.52;;
23175;SDS011;19910;42.652;23.332;2023-04-03T01:30:19;2.97;;;1.45;;
23175;SDS011;19910;42.652;23.332;2023-04-03T01:32:48;1.98;;;1.30;;
23175;SDS011;19910;42.652;23.332;2023-04-03T01:35:15;3.30;;;1.80;;
23175;SDS011;19910;42.652;23.332;2023-04-03T01:37:42;2.80;;;1.63;;
23175;SDS011;19910;42.652;23.332;2023-04-03T01:40:09;3.00;;;1.73;;
23175;SDS011;19910;42.652;23.332;2023-04-03T01:42:36;2.00;;;1.40;;
23175;SDS011;19910;42.652;23.332;2023-04-03T01:45:03;2.28;;;1.48;;
23175;SDS011;19910;42.652;23.332;2023-04-03T01:47:30;2.53;;;1.70;;
23175;SDS011;19910;42.652;23.332;2023-04-03T01:49:58;2.85;;;1.48;;
23175;SDS011;19910;42.652;23.332;2023-04-03T01:52:25;3.08;;;1.95;;
23175;SDS011;19910;42.652;23.332;2023-04-03T01:54:52;3.60;;;1.65;;
23175;SDS011;19910;42.652;23.332;2023-04-03T01:57:18;4.03;;;2.17;;
23175;SDS011;19910;42.652;23.332;2023-04-03T01:59:45;5.18;;;1.75;;
23175;SDS011;19910;42.652;23.332;2023-04-03T02:02:12;7.78;;;1.92;;
23175;SDS011;19910;42.652;23.332;2023-04-03T02:04:39;2.38;;;1.80;;
23175;SDS011;19910;42.652;23.332;2023-04-03T02:07:08;2.45;;;1.40;;
23175;SDS011;19910;42.652;23.332;2023-04-03T02:09:35;3.00;;;1.73;;
23175;SDS011;19910;42.652;23.332;2023-04-03T02:12:01;2.92;;;2.25;;
23175;SDS011;19910;42.652;23.332;2023-04-03T02:14:28;4.82;;;3.05;;
23175;SDS011;19910;42.652;23.332;2023-04-03T02:16:55;4.55;;;3.08;;
23175;SDS011;19910;42.652;23.332;2023-04-03T02:19:22;6.15;;;3.30;;
23175;SDS011;19910;42.652;23.332;2023-04-03T02:21:49;5.05;;;2.80;;
23175;SDS011;19910;42.652;23.332;2023-04-03T02:24:17;3.78;;;2.83;;
23175;SDS011;19910;42.652;23.332;2023-04-03T02:26:43;3.78;;;2.90;;
23175;SDS011;19910;42.652;23.332;2023-04-03T02:29:10;7.90;;;3.10;;
23175;SDS011;19910;42.652;23.332;2023-04-03T02:31:37;5.00;;;2.95;;
23175;SDS011;19910;42.652;23.332;2023-04-03T02:34:04;6.35;;;3.72;;
23175;SDS011;19910;42.652;23.332;2023-04-03T02:36:31;6.82;;;3.95;;
23175;SDS011;19910;42.652;23.332;2023-04-03T02:38:57;4.22;;;2.58;;
23175;SDS011;19910;42.652;23.332;2023-04-03T02:41:25;3.72;;;1.80;;
23175;SDS011;19910;42.652;23.332;2023-04-03T02:43:58;4.38;;;2.05;;
23175;SDS011;19910;42.652;23.332;2023-04-03T02:46:25;6.82;;;2.30;;
23175;SDS011;19910;42.652;23.332;2023-04-03T02:48:52;3.15;;;2.20;;
23175;SDS011;19910;42.652;23.332;2023-04-03T02:51:18;7.05;;;2.45;;
23175;SDS011;19910;42.652;23.332;2023-04-03T02:53:45;3.25;;;2.20;;
23175;SDS011;19910;42.652;23.332;2023-04-03T02:56:12;4.25;;;2.38;;
23175;SDS011;19910;42.652;23.332;2023-04-03T02:58:40;4.93;;;2.25;;
23175;SDS011;19910;42.652;23.332;2023-04-03T03:01:07;6.60;;;2.10;;
23175;SDS011;19910;42.652;23.332;2023-04-03T03:03:34;2.70;;;1.88;;
23175;SDS011;19910;42.652;23.332;2023-04-03T03:06:01;1.83;;;1.63;;
23175;SDS011;19910;42.652;23.332;2023-04-03T03:08:29;3.65;;;2.28;;
23175;SDS011;19910;42.652;23.332;2023-04-03T03:10:55;3.88;;;2.38;;
23175;SDS011;19910;42.652;23.332;2023-04-03T03:13:22;4.18;;;2.45;;
23175;SDS011;19910;42.652;23.332;2023-04-03T03:15:51;2.15;;;1.60;;
23175;SDS011;19910;42.652;23.332;2023-04-03T03:18:18;3.28;;;2.20;;
23175;SDS011;19910;42.652;23.332;2023-04-03T03:20:45;3.35;;;2.20;;
23175;SDS011;19910;42.652;23.332;2023-04-03T03:23:11;2.90;;;1.67;;
23175;SDS011;19910;42.652;23.332;2023-04-03T03:25:38;5.20;;;2.67;;
23175;SDS011;19910;42.652;23.332;2023-04-03T03:28:05;4.00;;;2.17;;
23175;SDS011;19910;42.652;23.332;2023-04-03T03:30:33;2.65;;;1.83;;
23175;SDS011;19910;42.652;23.332;2023-04-03T03:33:01;7.05;;;2.92;;
23175;SDS011;19910;42.652;23.332;2023-04-03T03:35:28;6.43;;;2.28;;
23175;SDS011;19910;42.652;23.332;2023-04-03T03:37:55;3.83;;;2.38;;
23175;SDS011;19910;42.652;23.332;2023-04-03T03:40:22;7.20;;;3.65;;
23175;SDS011;19910;42.652;23.332;2023-04-03T03:42:48;6.50;;;3.58;;
23175;SDS011;19910;42.652;23.332;2023-04-03T03:45:15;5.93;;;2.88;;
23175;SDS011;19910;42.652;23.332;2023-04-03T03:47:42;8.10;;;3.15;;
23175;SDS011;19910;42.652;23.332;2023-04-03T03:50:10;7.20;;;3.13;;
23175;SDS011;19910;42.652;23.332;2023-04-03T03:52:37;17.20;;;6.38;;
23175;SDS011;19910;42.652;23.332;2023-04-03T03:55:05;9.07;;;4.55;;
23175;SDS011;19910;42.652;23.332;2023-04-03T03:57:32;11.35;;;4.88;;
23175;SDS011;19910;42.652;23.332;2023-04-03T03:59:59;12.95;;;4.43;;
23175;SDS011;19910;42.652;23.332;2023-04-03T04:02:25;7.65;;;3.90;;
23175;SDS011;19910;42.652;23.332;2023-04-03T04:04:52;4.72;;;2.70;;
23175;SDS011;19910;42.652;23.332;2023-04-03T04:07:20;8.85;;;3.17;;
23175;SDS011;19910;42.652;23.332;2023-04-03T04:09:47;4.38;;;2.13;;
23175;SDS011;19910;42.652;23.332;2023-04-03T04:12:14;10.98;;;2.72;;
23175;SDS011;19910;42.652;23.332;2023-04-03T04:14:41;6.20;;;2.92;;
23175;SDS011;19910;42.652;23.332;2023-04-03T04:17:11;5.15;;;2.58;;
23175;SDS011;19910;42.652;23.332;2023-04-03T04:19:38;4.05;;;2.20;;
23175;SDS011;19910;42.652;23.332;2023-04-03T04:22:05;4.57;;;2.20;;
23175;SDS011;19910;42.652;23.332;2023-04-03T04:24:33;15.02;;;3.35;;
23175;SDS011;19910;42.652;23.332;2023-04-03T04:27:00;5.03;;;2.90;;
23175;SDS011;19910;42.652;23.332;2023-04-03T04:29:26;7.95;;;2.85;;
23175;SDS011;19910;42.652;23.332;2023-04-03T04:31:53;4.45;;;2.42;;
23175;SDS011;19910;42.652;23.332;2023-04-03T04:34:20;4.82;;;2.75;;
23175;SDS011;19910;42.652;23.332;2023-04-03T04:36:46;3.78;;;2.42;;
23175;SDS011;19910;42.652;23.332;2023-04-03T04:39:13;4.65;;;2.67;;
23175;SDS011;19910;42.652;23.332;2023-04-03T04:41:41;7.82;;;2.92;;
23175;SDS011;19910;42.652;23.332;2023-04-03T04:44:08;6.20;;;2.88;;
23175;SDS011;19910;42.652;23.332;2023-04-03T04:46:35;11.45;;;5.70;;
23175;SDS011;19910;42.652;23.332;2023-04-03T04:49:02;17.48;;;7.80;;
23175;SDS011;19910;42.652;23.332;2023-04-03T04:51:28;19.80;;;8.18;;
23175;SDS011;19910;42.652;23.332;2023-04-03T04:53:55;4.68;;;3.25;;
23175;SDS011;19910;42.652;23.332;2023-04-03T04:56:22;10.32;;;3.28;;
23175;SDS011;19910;42.652;23.332;2023-04-03T04:58:50;15.50;;;5.35;;
23175;SDS011;19910;42.652;23.332;2023-04-03T05:01:17;6.75;;;3.75;;
23175;SDS011;19910;42.652;23.332;2023-04-03T05:03:43;8.10;;;3.78;;
23175;SDS011;19910;42.652;23.332;2023-04-03T05:06:11;9.85;;;3.85;;
23175;SDS011;19910;42.652;23.332;2023-04-03T05:08:37;6.20;;;3.65;;
23175;SDS011;19910;42.652;23.332;2023-04-03T05:11:04;10.43;;;3.75;;
23175;SDS011;19910;42.652;23.332;2023-04-03T05:13:31;11.00;;;3.25;;
23175;SDS011;19910;42.652;23.332;2023-04-03T05:15:59;7.43;;;3.08;;
23175;SDS011;19910;42.652;23.332;2023-04-03T05:18:26;4.88;;;3.10;;
23175;SDS011;19910;42.652;23.332;2023-04-03T05:20:52;9.52;;;3.58;;
23175;SDS011;19910;42.652;23.332;2023-04-03T05:23:20;11.90;;;4.50;;
23175;SDS011;19910;42.652;23.332;2023-04-03T05:25:47;6.95;;;4.30;;
23175;SDS011;19910;42.652;23.332;2023-04-03T05:28:14;10.43;;;3.60;;
23175;SDS011;19910;42.652;23.332;2023-04-03T05:30:41;17.60;;;5.00;;
23175;SDS011;19910;42.652;23.332;2023-04-03T05:33:09;8.80;;;4.43;;
23175;SDS011;19910;42.652;23.332;2023-04-03T05:35:36;9.15;;;5.00;;
23175;SDS011;19910;42.652;23.332;2023-04-03T05:38:04;6.57;;;4.30;;
23175;SDS011;19910;42.652;23.332;2023-04-03T05:40:31;15.13;;;4.25;;
23175;SDS011;19910;42.652;23.332;2023-04-03T05:42:58;6.78;;;4.18;;
23175;SDS011;19910;42.652;23.332;2023-04-03T05:45:24;6.57;;;4.22;;
23175;SDS011;19910;42.652;23.332;2023-04-03T05:47:51;10.00;;;3.90;;
23175;SDS011;19910;42.652;23.332;2023-04-03T05:50:19;12.40;;;4.22;;
23175;SDS011;19910;42.652;23.332;2023-04-03T05:52:47;7.35;;;4.53;;
23175;SDS011;19910;42.652;23.332;2023-04-03T05:55:16;8.95;;;3.97;;
23175;SDS011;19910;42.652;23.332;2023-04-03T05:57:43;7.93;;;3.67;;
23175;SDS011;19910;42.652;23.332;2023-04-03T06:00:11;12.77;;;4.53;;
23175;SDS011;19910;42.652;23.332;2023-04-03T06:02:40;7.30;;;3.85;;
23175;SDS011;19910;42.652;23.332;2023-04-03T06:05:08;9.77;;;4.60;;
23175;SDS011;19910;42.652;23.332;2023-04-03T06:07:38;14.00;;;4.40;;
23175;SDS011;19910;42.652;23.332;2023-04-03T06:10:05;14.60;;;7.22;;
23175;SDS011;19910;42.652;23.332;2023-04-03T06:12:33;10.98;;;5.45;;
23175;SDS011;19910;42.652;23.332;2023-04-03T06:15:00;11.32;;;5.78;;
23175;SDS011;19910;42.652;23.332;2023-04-03T06:17:27;16.42;;;5.60;;
23175;SDS011;19910;42.652;23.332;2023-04-03T06:19:54;9.98;;;4.38;;
23175;SDS011;19910;42.652;23.332;2023-04-03T06:22:23;9.68;;;4.25;;
23175;SDS011;19910;42.652;23.332;2023-04-03T06:24:52;9.15;;;5.00;;
23175;SDS011;19910;42.652;23.332;2023-04-03T06:27:19;13.60;;;5.18;;
23175;SDS011;19910;42.652;23.332;2023-04-03T06:29:46;20.65;;;6.07;;
23175;SDS011;19910;42.652;23.332;2023-04-03T06:32:13;13.88;;;6.07;;
23175;SDS011;19910;42.652;23.332;2023-04-03T06:34:40;11.45;;;5.43;;
23175;SDS011;19910;42.652;23.332;2023-04-03T06:37:10;11.15;;;5.53;;
23175;SDS011;19910;42.652;23.332;2023-04-03T06:39:39;12.50;;;5.43;;
23175;SDS011;19910;42.652;23.332;2023-04-03T06:42:07;10.32;;;5.85;;
23175;SDS011;19910;42.652;23.332;2023-04-03T06:44:34;11.20;;;5.20;;
23175;SDS011;19910;42.652;23.332;2023-04-03T06:47:01;12.90;;;5.35;;
23175;SDS011;19910;42.652;23.332;2023-04-03T06:49:27;9.88;;;5.40;;
23175;SDS011;19910;42.652;23.332;2023-04-03T06:51:54;9.82;;;5.05;;
23175;SDS011;19910;42.652;23.332;2023-04-03T06:54:21;8.25;;;5.28;;
23175;SDS011;19910;42.652;23.332;2023-04-03T06:56:48;11.27;;;5.43;;
23175;SDS011;19910;42.652;23.332;2023-04-03T06:59:17;13.27;;;6.05;;
23175;SDS011;19910;42.652;23.332;2023-04-03T07:01:44;9.02;;;4.78;;
23175;SDS011;19910;42.652;23.332;2023-04-03T07:04:14;9.73;;;5.55;;
23175;SDS011;19910;42.652;23.332;2023-04-03T07:06:41;9.68;;;5.57;;
23175;SDS011;19910;42.652;23.332;2023-04-03T07:09:08;12.00;;;6.60;;
23175;SDS011;19910;42.652;23.332;2023-04-03T07:11:36;9.52;;;6.70;;
23175;SDS011;19910;42.652;23.332;2023-04-03T07:14:02;11.00;;;5.82;;
23175;SDS011;19910;42.652;23.332;2023-04-03T07:16:32;11.38;;;5.43;;
23175;SDS011;19910;42.652;23.332;2023-04-03T07:18:58;12.45;;;5.78;;
23175;SDS011;19910;42.652;23.332;2023-04-03T07:21:25;17.50;;;5.95;;
23175;SDS011;19910;42.652;23.332;2023-04-03T07:23:53;14.18;;;5.47;;
23175;SDS011;19910;42.652;23.332;2023-04-03T07:26:20;12.75;;;6.22;;
23175;SDS011;19910;42.652;23.332;2023-04-03T07:28:47;10.93;;;5.15;;
23175;SDS011;19910;42.652;23.332;2023-04-03T07:31:15;15.73;;;5.70;;
23175;SDS011;19910;42.652;23.332;2023-04-03T07:33:44;10.98;;;5.97;;
23175;SDS011;19910;42.652;23.332;2023-04-03T07:36:14;12.90;;;7.18;;
23175;SDS011;19910;42.652;23.332;2023-04-03T07:38:44;12.10;;;6.32;;
23175;SDS011;19910;42.652;23.332;2023-04-03T07:41:11;8.88;;;5.57;;
23175;SDS011;19910;42.652;23.332;2023-04-03T07:43:42;12.32;;;5.63;;
23175;SDS011;19910;42.652;23.332;2023-04-03T07:46:09;10.18;;;5.40;;
23175;SDS011;19910;42.652;23.332;2023-04-03T07:48:36;5.97;;;3.78;;
23175;SDS011;19910;42.652;23.332;2023-04-03T07:51:04;11.18;;;3.88;;
23175;SDS011;19910;42.652;23.332;2023-04-03T07:53:31;3.55;;;2.78;;
23175;SDS011;19910;42.652;23.332;2023-04-03T07:55:59;6.40;;;4.60;;
23175;SDS011;19910;42.652;23.332;2023-04-03T07:58:27;7.43;;;4.28;;
23175;SDS011;19910;42.652;23.332;2023-04-03T08:00:55;9.02;;;4.15;;
23175;SDS011;19910;42.652;23.332;2023-04-03T08:03:22;7.70;;;3.72;;
23175;SDS011;19910;42.652;23.332;2023-04-03T08:05:49;10.25;;;4.93;;
23175;SDS011;19910;42.652;23.332;2023-04-03T08:08:18;15.45;;;6.25;;
23175;SDS011;19910;42.652;23.332;2023-04-03T08:10:47;12.93;;;6.95;;
23175;SDS011;19910;42.652;23.332;2023-04-03T08:13:15;12.00;;;6.80;;
23175;SDS011;19910;42.652;23.332;2023-04-03T08:15:42;14.23;;;7.22;;
23175;SDS011;19910;42.652;23.332;2023-04-03T08:18:09;17.65;;;8.32;;
23175;SDS011;19910;42.652;23.332;2023-04-03T08:20:37;22.80;;;8.70;;
23175;SDS011;19910;42.652;23.332;2023-04-03T08:23:05;15.38;;;8.98;;
23175;SDS011;19910;42.652;23.332;2023-04-03T08:25:33;21.67;;;11.02;;
23175;SDS011;19910;42.652;23.332;2023-04-03T08:28:04;23.98;;;13.77;;
23175;SDS011;19910;42.652;23.332;2023-04-03T08:30:31;21.10;;;10.63;;
23175;SDS011;19910;42.652;23.332;2023-04-03T08:32:59;16.90;;;9.80;;
23175;SDS011;19910;42.652;23.332;2023-04-03T08:35:27;20.30;;;8.70;;
23175;SDS011;19910;42.652;23.332;2023-04-03T08:37:54;19.70;;;11.23;;
23175;SDS011;19910;42.652;23.332;2023-04-03T08:40:21;30.15;;;11.82;;
23175;SDS011;19910;42.652;23.332;2023-04-03T08:42:54;21.33;;;11.82;;
23175;SDS011;19910;42.652;23.332;2023-04-03T08:45:34;21.27;;;11.30;;
23175;SDS011;19910;42.652;23.332;2023-04-03T08:48:11;21.65;;;11.73;;
23175;SDS011;19910;42.652;23.332;2023-04-03T08:50:41;15.70;;;7.05;;
23175;SDS011;19910;42.652;23.332;2023-04-03T08:53:11;17.88;;;8.52;;
23175;SDS011;19910;42.652;23.332;2023-04-03T08:55:42;14.38;;;7.43;;
23175;SDS011;19910;42.652;23.332;2023-04-03T08:58:12;22.05;;;8.18;;
23175;SDS011;19910;42.652;23.332;2023-04-03T09:00:43;17.83;;;8.30;;
23175;SDS011;19910;42.652;23.332;2023-04-03T09:03:13;16.15;;;9.77;;
23175;SDS011;19910;42.652;23.332;2023-04-03T09:05:42;19.00;;;9.88;;
23175;SDS011;19910;42.652;23.332;2023-04-03T09:08:14;21.63;;;11.57;;
23175;SDS011;19910;42.652;23.332;2023-04-03T09:10:48;21.00;;;12.63;;
23175;SDS011;19910;42.652;23.332;2023-04-03T09:13:21;17.05;;;9.90;;
23175;SDS011;19910;42.652;23.332;2023-04-03T09:15:56;13.40;;;8.68;;
23175;SDS011;19910;42.652;23.332;2023-04-03T09:18:24;16.33;;;7.40;;
23175;SDS011;19910;42.652;23.332;2023-04-03T09:20:56;11.13;;;5.50;;
23175;SDS011;19910;42.652;23.332;2023-04-03T09:23:28;9.35;;;5.32;;
23175;SDS011;19910;42.652;23.332;2023-04-03T09:26:01;11.32;;;4.55;;
23175;SDS011;19910;42.652;23.332;2023-04-03T09:28:34;6.97;;;3.83;;
23175;SDS011;19910;42.652;23.332;2023-04-03T09:31:05;7.63;;;4.03;;
23175;SDS011;19910;42.652;23.332;2023-04-03T09:33:44;5.18;;;2.65;;
23175;SDS011;19910;42.652;23.332;2023-04-03T09:36:12;6.13;;;3.00;;
23175;SDS011;19910;42.652;23.332;2023-04-03T09:38:39;6.07;;;4.00;;
23175;SDS011;19910;42.652;23.332;2023-04-03T09:41:09;6.15;;;2.38;;
23175;SDS011;19910;42.652;23.332;2023-04-03T09:43:52;5.40;;;1.95;;
23175;SDS011;19910;42.652;23.332;2023-04-03T09:46:25;6.97;;;1.95;;
23175;SDS011;19910;42.652;23.332;2023-04-03T09:48:57;2.15;;;1.30;;
23175;SDS011;19910;42.652;23.332;2023-04-03T09:51:26;4.43;;;2.45;;
23175;SDS011;19910;42.652;23.332;2023-04-03T09:53:53;3.30;;;1.70;;
23175;SDS011;19910;42.652;23.332;2023-04-03T09:56:23;3.85;;;1.80;;
23175;SDS011;19910;42.652;23.332;2023-04-03T09:59:04;3.67;;;1.60;;
23175;SDS011;19910;42.652;23.332;2023-04-03T10:01:34;1.83;;;1.42;;
23175;SDS011;19910;42.652;23.332;2023-04-03T10:04:05;2.97;;;1.73;;
23175;SDS011;19910;42.652;23.332;2023-04-03T10:06:35;2.10;;;1.50;;
23175;SDS011;19910;42.652;23.332;2023-04-03T10:09:06;6.15;;;1.83;;
23175;SDS011;19910;42.652;23.332;2023-04-03T10:11:57;2.83;;;1.85;;
23175;SDS011;19910;42.652;23.332;2023-04-03T10:14:27;2.50;;;1.52;;
23175;SDS011;19910;42.652;23.332;2023-04-03T10:16:57;1.20;;;1.08;;
23175;SDS011;19910;42.652;23.332;2023-04-03T10:19:32;2.08;;;1.63;;
23175;SDS011;19910;42.652;23.332;2023-04-03T10:22:04;5.50;;;1.88;;
23175;SDS011;19910;42.652;23.332;2023-04-03T10:24:44;3.13;;;1.88;;
23175;SDS011;19910;42.652;23.332;2023-04-03T10:27:18;3.55;;;2.20;;
23175;SDS011;19910;42.652;23.332;2023-04-03T10:29:55;5.57;;;2.35;;
23175;SDS011;19910;42.652;23.332;2023-04-03T10:32:45;3.05;;;1.50;;
23175;SDS011;19910;42.652;23.332;2023-04-03T10:35:22;2.75;;;2.00;;
23175;SDS011;19910;42.652;23.332;2023-04-03T10:38:01;4.72;;;1.90;;
23175;SDS011;19910;42.652;23.332;2023-04-03T10:40:37;3.53;;;2.17;;
23175;SDS011;19910;42.652;23.332;2023-04-03T10:43:14;3.47;;;1.52;;
23175;SDS011;19910;42.652;23.332;2023-04-03T10:45:51;3.45;;;1.98;;
23175;SDS011;19910;42.652;23.332;2023-04-03T10:48:27;3.97;;;2.00;;
23175;SDS011;19910;42.652;23.332;2023-04-03T10:51:09;2.25;;;1.30;;
23175;SDS011;19910;42.652;23.332;2023-04-03T10:53:44;5.22;;;1.98;;
23175;SDS011;19910;42.652;23.332;2023-04-03T10:56:22;3.45;;;1.38;;
23175;SDS011;19910;42.652;23.332;2023-04-03T10:58:56;4.38;;;2.00;;
23175;SDS011;19910;42.652;23.332;2023-04-03T11:01:30;6.55;;;1.98;;
23175;SDS011;19910;42.652;23.332;2023-04-03T11:04:03;9.48;;;1.88;;
23175;SDS011;19910;42.652;23.332;2023-04-03T11:06:33;6.88;;;2.05;;
23175;SDS011;19910;42.652;23.332;2023-04-03T11:09:05;2.35;;;1.48;;
23175;SDS011;19910;42.652;23.332;2023-04-03T11:11:37;3.28;;;2.10;;
23175;SDS011;19910;42.652;23.332;2023-04-03T11:14:09;1.70;;;1.23;;
23175;SDS011;19910;42.652;23.332;2023-04-03T11:16:43;3.60;;;2.33;;
23175;SDS011;19910;42.652;23.332;2023-04-03T11:19:14;3.15;;;2.03;;
23175;SDS011;19910;42.652;23.332;2023-04-03T11:21:50;3.00;;;1.90;;
23175;SDS011;19910;42.652;23.332;2023-04-03T11:24:22;2.10;;;1.38;;
23175;SDS011;19910;42.652;23.332;2023-04-03T11:26:51;1.88;;;1.50;;
23175;SDS011;19910;42.652;23.332;2023-04-03T11:29:21;1.67;;;1.10;;
23175;SDS011;19910;42.652;23.332;2023-04-03T11:32:01;3.08;;;1.27;;
23175;SDS011;19910;42.652;23.332;2023-04-03T11:34:39;2.42;;;2.00;;
23175;SDS011;19910;42.652;23.332;2023-04-03T11:37:12;2.90;;;1.98;;
23175;SDS011;19910;42.652;23.332;2023-04-03T11:39:47;1.55;;;1.30;;
23175;SDS011;19910;42.652;23.332;2023-04-03T11:42:24;2.70;;;1.67;;
23175;SDS011;19910;42.652;23.332;2023-04-03T11:45:16;3.50;;;2.60;;
23175;SDS011;19910;42.652;23.332;2023-04-03T11:47:52;2.97;;;2.00;;
23175;SDS011;19910;42.652;23.332;2023-04-03T11:50:30;2.10;;;1.33;;
23175;SDS011;19910;42.652;23.332;2023-04-03T11:55:59;1.10;;;1.00;;
23175;SDS011;19910;42.652;23.332;2023-04-03T11:58:28;2.78;;;1.73;;
23175;SDS011;19910;42.652;23.332;2023-04-03T12:00:58;7.18;;;2.78;;
23175;SDS011;19910;42.652;23.332;2023-04-03T12:03:55;2.88;;;1.58;;
23175;SDS011;19910;42.652;23.332;2023-04-03T12:12:42;2.30;;;2.10;;
23175;SDS011;19910;42.652;23.332;2023-04-03T12:18:41;3.35;;;1.88;;
23175;SDS011;19910;42.652;23.332;2023-04-03T12:21:09;2.78;;;1.50;;
23175;SDS011;19910;42.652;23.332;2023-04-03T12:23:37;4.55;;;1.20;;
23175;SDS011;19910;42.652;23.332;2023-04-03T12:26:24;2.30;;;1.80;;
23175;SDS011;19910;42.652;23.332;2023-04-03T12:28:53;1.55;;;1.10;;
23175;SDS011;19910;42.652;23.332;2023-04-03T12:31:22;3.30;;;2.20;;
23175;SDS011;19910;42.652;23.332;2023-04-03T12:34:01;2.00;;;1.55;;
23175;SDS011;19910;42.652;23.332;2023-04-03T12:36:41;4.10;;;2.60;;
23175;SDS011;19910;42.652;23.332;2023-04-03T12:42:32;4.40;;;1.85;;
23175;SDS011;19910;42.652;23.332;2023-04-03T12:45:15;3.13;;;2.42;;
23175;SDS011;19910;42.652;23.332;2023-04-03T12:47:45;3.08;;;1.70;;
23175;SDS011;19910;42.652;23.332;2023-04-03T12:50:18;3.70;;;2.58;;
23175;SDS011;19910;42.652;23.332;2023-04-03T12:52:51;5.18;;;3.10;;
23175;SDS011;19910;42.652;23.332;2023-04-03T12:55:22;5.60;;;3.28;;
23175;SDS011;19910;42.652;23.332;2023-04-03T12:57:49;3.53;;;2.13;;
23175;SDS011;19910;42.652;23.332;2023-04-03T13:00:20;3.97;;;1.58;;
23175;SDS011;19910;42.652;23.332;2023-04-03T13:02:52;5.25;;;2.90;;
23175;SDS011;19910;42.652;23.332;2023-04-03T13:05:21;5.95;;;2.97;;
23175;SDS011;19910;42.652;23.332;2023-04-03T13:07:49;3.13;;;2.47;;
23175;SDS011;19910;42.652;23.332;2023-04-03T13:10:24;4.35;;;2.28;;
23175;SDS011;19910;42.652;23.332;2023-04-03T13:12:52;4.07;;;2.63;;
23175;SDS011;19910;42.652;23.332;2023-04-03T13:15:22;4.80;;;2.60;;
23175;SDS011;19910;42.652;23.332;2023-04-03T13:17:51;2.75;;;1.55;;
23175;SDS011;19910;42.652;23.332;2023-04-03T13:20:20;3.20;;;2.53;;
23175;SDS011;19910;42.652;23.332;2023-04-03T13:22:52;7.63;;;3.00;;
23175;SDS011;19910;42.652;23.332;2023-04-03T13:25:23;2.33;;;2.08;;
23175;SDS011;19910;42.652;23.332;2023-04-03T13:27:53;2.70;;;1.92;;
23175;SDS011;19910;42.652;23.332;2023-04-03T13:30:22;4.13;;;2.33;;
23175;SDS011;19910;42.652;23.332;2023-04-03T13:32:51;2.53;;;2.00;;
23175;SDS011;19910;42.652;23.332;2023-04-03T13:35:31;2.47;;;1.98;;
23175;SDS011;19910;42.652;23.332;2023-04-03T13:38:07;3.67;;;2.60;;
23175;SDS011;19910;42.652;23.332;2023-04-03T13:40:49;3.90;;;2.65;;
23175;SDS011;19910;42.652;23.332;2023-04-03T13:43:18;3.20;;;2.35;;
23175;SDS011;19910;42.652;23.332;2023-04-03T13:46:00;2.83;;;2.15;;
23175;SDS011;19910;42.652;23.332;2023-04-03T13:48:35;5.53;;;3.33;;
23175;SDS011;19910;42.652;23.332;2023-04-03T13:51:13;2.78;;;2.20;;
23175;SDS011;19910;42.652;23.332;2023-04-03T13:53:46;7.13;;;3.78;;
23175;SDS011;19910;42.652;23.332;2023-04-03T13:56:18;5.05;;;3.20;;
23175;SDS011;19910;42.652;23.332;2023-04-03T13:59:04;4.20;;;2.13;;
23175;SDS011;19910;42.652;23.332;2023-04-03T14:01:47;5.95;;;4.43;;
23175;SDS011;19910;42.652;23.332;2023-04-03T14:04:17;5.75;;;3.85;;
23175;SDS011;19910;42.652;23.332;2023-04-03T14:06:47;3.15;;;2.42;;
23175;SDS011;19910;42.652;23.332;2023-04-03T14:09:15;6.10;;;3.65;;
23175;SDS011;19910;42.652;23.332;2023-04-03T14:11:42;5.35;;;3.63;;
23175;SDS011;19910;42.652;23.332;2023-04-03T14:14:12;6.90;;;4.20;;
23175;SDS011;19910;42.652;23.332;2023-04-03T14:16:43;3.00;;;2.45;;
23175;SDS011;19910;42.652;23.332;2023-04-03T14:19:16;4.00;;;2.00;;
23175;SDS011;19910;42.652;23.332;2023-04-03T14:21:47;3.92;;;2.78;;
23175;SDS011;19910;42.652;23.332;2023-04-03T14:24:15;3.55;;;2.67;;
23175;SDS011;19910;42.652;23.332;2023-04-03T14:26:42;3.88;;;2.28;;
23175;SDS011;19910;42.652;23.332;2023-04-03T14:29:10;4.38;;;2.95;;
23175;SDS011;19910;42.652;23.332;2023-04-03T14:31:38;4.40;;;2.58;;
23175;SDS011;19910;42.652;23.332;2023-04-03T14:34:05;6.10;;;2.63;;
23175;SDS011;19910;42.652;23.332;2023-04-03T14:36:32;2.00;;;1.33;;
23175;SDS011;19910;42.652;23.332;2023-04-03T14:39:00;3.88;;;2.75;;
23175;SDS011;19910;42.652;23.332;2023-04-03T14:41:27;2.80;;;1.58;;
23175;SDS011;19910;42.652;23.332;2023-04-03T14:43:54;5.78;;;3.20;;
23175;SDS011;19910;42.652;23.332;2023-04-03T14:46:26;7.70;;;2.78;;
23175;SDS011;19910;42.652;23.332;2023-04-03T14:48:55;6.07;;;3.58;;
23175;SDS011;19910;42.652;23.332;2023-04-03T14:51:22;3.42;;;2.40;;
23175;SDS011;19910;42.652;23.332;2023-04-03T14:53:49;4.25;;;2.40;;
23175;SDS011;19910;42.652;23.332;2023-04-03T14:56:19;3.85;;;2.30;;
23175;SDS011;19910;42.652;23.332;2023-04-03T14:58:49;3.95;;;2.05;;
23175;SDS011;19910;42.652;23.332;2023-04-03T15:01:20;2.67;;;1.77;;